createdAt,value
2018-06-30T00:01:57.258Z,40.56
2018-06-30T00:04:29.733Z,39.99
2018-06-30T00:06:59.254Z,39.95
2018-06-30T00:09:28.706Z,39.54
2018-06-30T00:11:58.175Z,39.84
2018-06-30T00:14:27.616Z,39.51
2018-06-30T00:16:58.001Z,39.46
2018-06-30T00:19:30.494Z,39.06
2018-06-30T00:21:59.996Z,39.61
2018-06-30T00:24:32.404Z,40.47
2018-06-30T00:27:27.063Z,40.01
2018-06-30T00:29:59.454Z,40.03
2018-06-30T00:32:31.852Z,39.72
2018-06-30T00:35:04.093Z,40.24
2018-06-30T00:37:33.600Z,39.77
2018-06-30T00:40:02.314Z,40.08
2018-06-30T00:42:34.714Z,40.32
2018-06-30T00:45:04.297Z,39.90
2018-06-30T00:47:36.692Z,40.24
2018-06-30T00:50:06.177Z,40.51
2018-06-30T00:52:35.605Z,40.64
2018-06-30T00:55:05.050Z,40.37
2018-06-30T00:57:37.493Z,39.85
2018-06-30T01:00:06.989Z,40.57
2018-06-30T01:02:37.226Z,40.60
2018-06-30T01:05:09.021Z,40.53
2018-06-30T01:07:38.503Z,40.48
2018-06-30T01:11:56.029Z,40.45
2018-06-30T01:14:25.518Z,40.60
2018-06-30T01:16:57.871Z,40.70
2018-06-30T01:19:30.281Z,40.58
2018-06-30T01:22:00.658Z,40.44
2018-06-30T01:24:33.156Z,40.46
2018-06-30T01:27:06.169Z,40.24
2018-06-30T01:29:37.223Z,40.30
2018-06-30T01:32:10.175Z,40.50
2018-06-30T01:34:40.422Z,40.38
2018-06-30T01:37:10.651Z,40.27
2018-06-30T01:39:43.070Z,40.30
2018-06-30T01:42:14.076Z,39.95
2018-06-30T01:44:46.495Z,40.08
2018-06-30T01:47:16.708Z,39.90
2018-06-30T01:49:49.144Z,39.82
2018-06-30T01:52:20.959Z,40.02
2018-06-30T01:54:50.449Z,40.47
2018-06-30T01:57:21.455Z,40.01
2018-06-30T01:59:50.941Z,40.16
2018-06-30T02:02:23.316Z,39.87
2018-06-30T02:04:55.736Z,40.32
2018-06-30T02:07:25.176Z,40.57
2018-06-30T02:09:57.688Z,40.30
2018-06-30T02:12:30.099Z,40.31
2018-06-30T02:15:01.125Z,40.50
2018-06-30T02:17:33.605Z,40.14
2018-06-30T02:20:03.844Z,40.65
2018-06-30T02:22:36.260Z,40.75
2018-06-30T02:25:05.756Z,40.80
2018-06-30T02:27:36.031Z,40.55
2018-06-30T02:30:06.273Z,40.44
2018-06-30T02:32:36.521Z,40.60
2018-06-30T02:35:08.959Z,40.85
2018-06-30T02:37:38.423Z,41.01
2018-06-30T02:40:10.857Z,40.66
2018-06-30T02:42:41.250Z,40.89
2018-06-30T02:45:12.272Z,40.97
2018-06-30T02:47:44.695Z,41.41
2018-06-30T02:50:16.492Z,40.88
2018-06-30T02:52:47.468Z,41.29
2018-06-30T02:55:20.001Z,41.38
2018-06-30T02:57:52.379Z,41.44
2018-06-30T03:00:24.176Z,41.38
2018-06-30T03:02:56.664Z,40.94
2018-06-30T03:05:26.095Z,40.84
2018-06-30T03:07:58.497Z,40.47
2018-06-30T03:10:27.948Z,40.62
2018-06-30T03:13:00.375Z,41.20
2018-06-30T03:15:32.762Z,40.55
2018-06-30T03:18:03.268Z,40.88
2018-06-30T03:20:35.655Z,41.08
2018-06-30T03:23:07.452Z,41.27
2018-06-30T03:25:38.457Z,41.36
2018-06-30T03:28:10.245Z,41.59
2018-06-30T03:30:39.701Z,41.37
2018-06-30T03:33:09.144Z,41.99
2018-06-30T03:35:38.602Z,41.70
2018-06-30T03:38:08.841Z,42.31
2018-06-30T03:40:38.308Z,42.38
2018-06-30T03:43:07.787Z,42.87
2018-06-30T03:45:38.004Z,41.50
2018-06-30T03:48:21.780Z,41.38
2018-06-30T03:50:52.780Z,41.77
2018-06-30T03:53:25.188Z,42.11
2018-06-30T03:55:57.643Z,41.61
2018-06-30T03:58:30.364Z,42.07
2018-06-30T04:01:02.754Z,41.46
2018-06-30T04:03:32.197Z,41.50
2018-06-30T04:06:04.688Z,42.10
2018-06-30T04:08:36.524Z,42.31
2018-06-30T04:11:08.397Z,42.09
2018-06-30T04:13:38.640Z,41.68
2018-06-30T04:16:08.152Z,41.92
2018-06-30T04:18:39.967Z,41.20
2018-06-30T04:21:09.900Z,41.25
2018-06-30T04:23:39.374Z,41.31
2018-06-30T04:26:08.809Z,41.62
2018-06-30T04:28:39.891Z,41.46
2018-06-30T04:31:09.346Z,41.49
2018-06-30T04:33:39.597Z,41.23
2018-06-30T04:36:09.048Z,41.53
2018-06-30T04:38:41.460Z,41.23
2018-06-30T04:41:13.924Z,41.68
2018-06-30T04:43:43.400Z,41.83
2018-06-30T04:46:13.624Z,41.67
2018-06-30T04:48:44.643Z,41.61
2018-06-30T04:51:17.148Z,41.68
2018-06-30T04:53:48.964Z,42.18
2018-06-30T04:56:18.404Z,43.47
2018-06-30T04:58:47.888Z,42.94
2018-06-30T05:01:18.140Z,43.33
2018-06-30T05:03:50.516Z,43.68
2018-06-30T05:06:20.004Z,43.25
2018-06-30T05:08:51.792Z,42.30
2018-06-30T05:11:24.284Z,41.91
2018-06-30T05:13:56.058Z,41.78
2018-06-30T05:16:27.085Z,42.37
2018-06-30T05:18:59.464Z,41.46
2018-06-30T05:21:28.907Z,42.36
2018-06-30T05:23:58.362Z,41.24
2018-06-30T05:26:28.581Z,41.24
2018-06-30T05:29:01.007Z,41.27
2018-06-30T05:31:30.455Z,41.53
2018-06-30T05:34:03.148Z,42.02
2018-06-30T05:36:32.579Z,42.18
2018-06-30T05:39:04.998Z,42.20
2018-06-30T05:41:34.433Z,42.79
2018-06-30T05:44:05.453Z,42.71
2018-06-30T05:46:37.857Z,43.14
2018-06-30T05:49:08.197Z,43.61
2018-06-30T05:51:39.047Z,43.09
2018-06-30T05:54:08.512Z,43.15
2018-06-30T05:56:40.936Z,43.39
2018-06-30T05:59:13.315Z,43.01
2018-06-30T06:01:45.109Z,43.53
2018-06-30T06:04:16.866Z,43.34
2018-06-30T06:06:49.315Z,44.00
2018-06-30T06:09:18.771Z,44.32
2018-06-30T06:11:51.212Z,43.44
2018-06-30T06:14:23.041Z,44.29
2018-06-30T06:16:53.267Z,43.68
2018-06-30T06:19:23.523Z,43.26
2018-06-30T06:21:52.976Z,43.66
2018-06-30T06:24:22.454Z,43.69
2018-06-30T06:26:54.220Z,43.66
2018-06-30T06:29:26.668Z,42.48
2018-06-30T06:31:58.429Z,42.74
2018-06-30T06:34:30.237Z,42.27
2018-06-30T06:36:59.715Z,41.95
2018-06-30T06:39:32.177Z,41.83
2018-06-30T06:42:04.673Z,41.73
2018-06-30T06:44:34.119Z,42.07
2018-06-30T06:47:05.928Z,41.73
2018-06-30T06:49:38.384Z,41.54
2018-06-30T06:52:10.217Z,41.55
2018-06-30T06:54:43.046Z,41.22
2018-06-30T06:57:15.483Z,41.64
2018-06-30T06:59:48.512Z,41.31
2018-06-30T07:02:19.496Z,41.53
2018-06-30T07:04:48.954Z,41.57
2018-06-30T07:07:18.445Z,41.45
2018-06-30T07:09:48.777Z,41.21
2018-06-30T07:12:19.005Z,41.57
2018-06-30T07:14:48.573Z,41.32
2018-06-30T07:17:19.659Z,41.16
2018-06-30T07:19:50.648Z,41.44
2018-06-30T07:22:20.104Z,41.47
2018-06-30T07:24:49.569Z,41.13
2018-06-30T07:27:19.000Z,41.28
2018-06-30T07:29:51.407Z,40.90
2018-06-30T07:32:20.836Z,40.90
2018-06-30T07:34:53.312Z,40.86
2018-06-30T07:37:22.830Z,40.80
2018-06-30T07:39:56.085Z,40.66
2018-06-30T07:42:28.503Z,40.85
2018-06-30T07:44:58.815Z,40.65
2018-06-30T07:47:31.210Z,40.87
2018-06-30T07:50:03.590Z,40.36
2018-06-30T07:52:33.026Z,40.44
2018-06-30T07:55:05.441Z,40.74
2018-06-30T07:57:36.504Z,40.48
2018-06-30T08:00:07.526Z,40.49
2018-06-30T08:02:38.549Z,40.22
2018-06-30T08:05:07.991Z,40.15
2018-06-30T08:07:37.466Z,40.04
2018-06-30T08:10:09.254Z,39.95
2018-06-30T08:12:39.483Z,39.60
2018-06-30T08:15:08.944Z,39.50
2018-06-30T08:17:38.404Z,39.67
2018-06-30T08:20:08.643Z,38.71
2018-06-30T08:22:41.066Z,38.83
2018-06-30T08:25:10.529Z,38.61
2018-06-30T08:27:42.321Z,38.53
2018-06-30T08:30:11.813Z,37.98
2018-06-30T08:32:45.119Z,38.35
2018-06-30T08:35:17.537Z,38.13
2018-06-30T08:37:46.969Z,38.31
2018-06-30T08:40:19.381Z,37.90
2018-06-30T08:42:51.800Z,38.60
2018-06-30T08:45:21.273Z,39.20
2018-06-30T08:47:53.664Z,39.34
2018-06-30T08:50:24.660Z,39.55
2018-06-30T08:52:54.873Z,39.90
2018-06-30T08:55:24.430Z,39.46
2018-06-30T08:57:56.203Z,39.72
2018-06-30T09:00:27.171Z,39.44
2018-06-30T09:02:57.443Z,39.88
2018-06-30T09:05:29.880Z,39.46
2018-06-30T09:08:02.316Z,39.26
2018-06-30T09:10:32.569Z,39.79
2018-06-30T09:13:05.084Z,39.95
2018-06-30T09:15:36.066Z,39.78
2018-06-30T09:18:09.111Z,39.59
2018-06-30T09:20:42.062Z,39.63
2018-06-30T09:23:14.601Z,38.55
2018-06-30T09:25:46.376Z,38.72
2018-06-30T09:28:17.410Z,38.34
2018-06-30T09:30:46.834Z,38.25
2018-06-30T09:33:19.254Z,38.92
2018-06-30T09:35:48.680Z,38.97
2018-06-30T09:38:21.171Z,37.86
2018-06-30T09:40:53.585Z,37.73
2018-06-30T09:43:24.904Z,37.79
2018-06-30T09:45:56.706Z,37.23
2018-06-30T09:48:29.992Z,37.39
2018-06-30T09:50:59.515Z,37.66
2018-06-30T09:53:32.635Z,38.37
2018-06-30T09:56:02.108Z,38.46
2018-06-30T09:58:32.339Z,37.42
2018-06-30T10:01:05.692Z,37.12
2018-06-30T10:03:38.148Z,37.11
2018-06-30T10:06:10.633Z,36.89
2018-06-30T10:08:43.223Z,37.20
2018-06-30T10:11:12.709Z,36.48
2018-06-30T10:13:45.217Z,36.74
2018-06-30T10:16:14.761Z,36.61
2018-06-30T10:18:45.776Z,36.56
2018-06-30T10:21:18.312Z,36.52
2018-06-30T10:23:48.459Z,35.90
2018-06-30T10:26:17.922Z,36.28
2018-06-30T10:28:47.408Z,35.94
2018-06-30T10:31:16.892Z,36.17
2018-06-30T10:33:47.876Z,36.05
2018-06-30T10:36:20.341Z,36.87
2018-06-30T10:38:49.830Z,36.90
2018-06-30T10:41:20.809Z,35.65
2018-06-30T10:43:53.241Z,35.19
2018-06-30T10:46:25.013Z,35.36
2018-06-30T10:48:57.498Z,35.33
2018-06-30T10:51:28.461Z,35.10
2018-06-30T10:53:59.552Z,35.45
2018-06-30T10:56:30.552Z,35.54
2018-06-30T10:59:00.027Z,36.23
2018-06-30T11:01:33.465Z,35.65
2018-06-30T11:04:03.006Z,35.85
2018-06-30T11:06:34.736Z,34.69
2018-06-30T11:09:06.392Z,33.90
2018-06-30T11:11:35.853Z,34.24
2018-06-30T11:14:08.320Z,34.24
2018-06-30T11:16:37.906Z,34.17
2018-06-30T11:19:11.005Z,34.89
2018-06-30T11:21:42.054Z,34.39
2018-06-30T11:24:14.622Z,34.15
2018-06-30T11:26:44.072Z,34.79
2018-06-30T11:29:16.532Z,35.11
2018-06-30T11:31:45.993Z,35.05
2018-06-30T11:34:16.221Z,35.31
2018-06-30T11:36:48.243Z,35.14
2018-06-30T11:39:18.481Z,34.58
2018-06-30T11:41:47.945Z,34.02
2018-06-30T11:44:20.349Z,34.06
2018-06-30T11:46:49.808Z,34.21
2018-06-30T11:49:20.177Z,34.32
2018-06-30T11:51:50.400Z,33.41
2018-06-30T11:54:22.810Z,33.25
2018-06-30T11:56:55.203Z,32.66
2018-06-30T11:59:24.664Z,32.57
2018-06-30T12:01:57.119Z,32.83
2018-06-30T12:04:28.165Z,32.78
2018-06-30T12:07:00.556Z,33.22
2018-06-30T12:09:30.790Z,32.48
2018-06-30T12:12:01.797Z,32.10
2018-06-30T12:14:34.203Z,31.30
2018-06-30T12:17:04.442Z,31.27
2018-06-30T12:19:36.840Z,31.41
2018-06-30T12:22:09.273Z,31.35
2018-06-30T12:24:41.696Z,30.92
2018-06-30T12:27:14.166Z,30.72
2018-06-30T12:29:43.677Z,31.37
2018-06-30T12:32:13.938Z,30.66
2018-06-30T12:34:46.359Z,30.37
2018-06-30T12:37:18.267Z,30.06
2018-06-30T12:39:50.022Z,29.78
2018-06-30T12:42:22.581Z,29.81
2018-06-30T12:44:52.096Z,30.61
2018-06-30T12:47:24.472Z,30.74
2018-06-30T12:49:56.921Z,29.91
2018-06-30T12:52:27.926Z,29.75
2018-06-30T12:55:00.329Z,29.13
2018-06-30T12:57:29.784Z,29.42
2018-06-30T13:00:07.358Z,29.69
2018-06-30T13:02:36.858Z,29.41
2018-06-30T13:05:07.099Z,28.81
2018-06-30T13:07:38.944Z,30.24
2018-06-30T13:10:11.418Z,30.19
2018-06-30T13:12:41.089Z,30.47
2018-06-30T13:15:12.086Z,29.51
2018-06-30T13:17:43.144Z,29.63
2018-06-30T13:20:14.154Z,29.52
